Time;durP1;ratioP1;P1;durP2;ratioP2;P2;SDS_P1;SDS_P2;PMS_P1;PMS_P2;Temp;Humidity;BMP_temperature;BMP_pressure;BME280_temperature;BME280_humidity;BME280_pressure;Samples;Min_cycle;Max_cycle;Signal;HPM_P1;HPM_P2
2023/11/08 00:01:34;;;;;;;3.47;1.70;;;9.90;61.20;;;;;;5051749;28;20373;-72
2023/11/08 00:04:00;;;;;;;4.30;1.60;;;9.90;61.60;;;;;;5051219;28;20790;-71
2023/11/08 00:06:26;;;;;;;4.50;1.92;;;9.90;61.40;;;;;;5050914;28;20404;-71
2023/11/08 00:08:52;;;;;;;4.45;1.80;;;9.90;62.00;;;;;;5050630;28;20768;-72
2023/11/08 00:11:23;;;;;;;4.60;1.40;;;9.90;61.20;;;;;;5050861;28;20401;-71
2023/11/08 00:13:50;;;;;;;5.10;1.73;;;9.90;60.00;;;;;;5050868;28;20384;-72
2023/11/08 00:16:17;;;;;;;5.20;1.70;;;9.90;60.00;;;;;;5051385;28;20385;-72
2023/11/08 00:18:44;;;;;;;7.03;1.73;;;9.90;59.50;;;;;;5050416;28;20374;-72
2023/11/08 00:21:10;;;;;;;4.55;1.88;;;9.90;58.60;;;;;;5050560;28;20390;-72
2023/11/08 00:23:36;;;;;;;6.80;1.80;;;10.00;58.90;;;;;;5050942;28;20473;-72
2023/11/08 00:26:01;;;;;;;6.17;2.00;;;10.00;58.60;;;;;;5051340;28;20943;-72
2023/11/08 00:28:27;;;;;;;5.70;1.88;;;10.00;57.40;;;;;;5051589;28;20464;-71
2023/11/08 00:30:53;;;;;;;6.57;1.60;;;10.00;57.50;;;;;;5051802;28;20408;-72
2023/11/08 00:33:18;;;;;;;5.13;1.83;;;10.00;57.80;;;;;;5052618;28;20404;-72
2023/11/08 00:35:44;;;;;;;4.15;1.83;;;10.00;58.10;;;;;;5053476;28;20378;-71
2023/11/08 00:38:10;;;;;;;4.00;2.00;;;10.00;59.00;;;;;;5052439;28;20488;-71
2023/11/08 00:40:35;;;;;;;6.47;1.70;;;9.90;60.20;;;;;;5050551;28;20385;-71
2023/11/08 00:43:01;;;;;;;6.03;1.80;;;9.90;60.60;;;;;;5037430;28;20870;-71
2023/11/08 00:45:26;;;;;;;4.22;1.98;;;9.90;59.40;;;;;;5058459;28;20377;-71
2023/11/08 00:47:53;;;;;;;6.43;1.73;;;9.90;60.70;;;;;;5065867;28;20492;-72
2023/11/08 00:50:19;;;;;;;6.53;2.08;;;10.00;59.40;;;;;;5065973;28;20401;-70
2023/11/08 00:52:44;;;;;;;6.75;1.80;;;10.00;60.10;;;;;;5065924;28;20377;-71
2023/11/08 00:55:10;;;;;;;6.72;1.45;;;10.00;58.90;;;;;;5068449;28;20381;-70
2023/11/08 00:57:36;;;;;;;5.25;1.60;;;10.00;59.20;;;;;;5069576;28;20392;-70
2023/11/08 01:00:07;;;;;;;6.78;1.70;;;10.00;59.90;;;;;;5058461;28;20385;-70
2023/11/08 01:02:33;;;;;;;6.30;1.90;;;10.10;59.30;;;;;;5053967;28;20423;-71
2023/11/08 01:04:59;;;;;;;5.25;1.80;;;10.00;60.00;;;;;;5053767;28;20397;-71
2023/11/08 01:07:24;;;;;;;8.13;1.90;;;10.00;58.70;;;;;;5053957;28;20404;-71
2023/11/08 01:09:50;;;;;;;4.13;1.63;;;10.00;58.50;;;;;;5053807;28;20396;-71
2023/11/08 01:12:16;;;;;;;6.07;2.10;;;10.00;58.40;;;;;;5035814;28;20388;-70
2023/11/08 01:14:41;;;;;;;4.72;1.60;;;9.90;58.80;;;;;;5054047;28;20488;-70
2023/11/08 01:17:10;;;;;;;4.75;1.40;;;9.90;59.00;;;;;;5058506;28;20417;-70
2023/11/08 01:19:36;;;;;;;4.50;1.77;;;10.00;58.40;;;;;;5066608;28;20377;-70
2023/11/08 01:22:05;;;;;;;2.63;1.50;;;9.90;58.90;;;;;;5062603;28;20396;-70
2023/11/08 01:24:34;;;;;;;5.93;1.70;;;9.90;57.80;;;;;;5067987;28;20397;-71
2023/11/08 01:27:01;;;;;;;6.30;1.80;;;10.00;58.00;;;;;;5069294;28;20449;-70
2023/11/08 01:29:27;;;;;;;5.90;1.60;;;10.00;57.70;;;;;;5047565;28;20397;-71
2023/11/08 01:31:54;;;;;;;3.72;1.40;;;10.00;57.40;;;;;;5060633;28;20779;-71
2023/11/08 01:34:20;;;;;;;8.00;1.80;;;10.00;57.40;;;;;;5063204;28;20468;-71
2023/11/08 01:36:46;;;;;;;4.82;1.60;;;10.10;56.50;;;;;;5060406;28;20429;-71
2023/11/08 01:39:11;;;;;;;5.70;1.80;;;10.10;57.40;;;;;;5053513;28;20385;-71
2023/11/08 01:41:38;;;;;;;3.42;1.23;;;10.10;57.80;;;;;;5035548;28;20910;-71
2023/11/08 01:44:04;;;;;;;2.75;1.45;;;10.00;57.10;;;;;;5053419;28;20392;-71
2023/11/08 01:46:31;;;;;;;4.70;1.80;;;10.00;57.20;;;;;;5052807;28;20918;-71
2023/11/08 01:48:58;;;;;;;4.40;1.50;;;10.00;57.10;;;;;;5052942;28;20484;-71
2023/11/08 01:51:25;;;;;;;7.45;1.90;;;10.00;57.90;;;;;;5052772;28;20397;-71
2023/11/08 01:53:52;;;;;;;5.53;1.50;;;10.00;58.10;;;;;;5052124;28;20430;-71
2023/11/08 01:56:19;;;;;;;5.40;1.50;;;10.00;57.00;;;;;;5053018;28;20752;-72
2023/11/08 01:58:46;;;;;;;6.57;1.50;;;10.10;56.90;;;;;;5053066;28;20385;-71
2023/11/08 02:01:11;;;;;;;3.40;1.40;;;10.20;55.90;;;;;;5052788;28;20389;-72
2023/11/08 02:03:40;;;;;;;5.60;1.83;;;10.20;56.20;;;;;;5052940;28;20717;-72
2023/11/08 02:06:07;;;;;;;3.97;1.70;;;10.20;55.00;;;;;;5052780;28;20389;-71
2023/11/08 02:08:33;;;;;;;3.15;1.60;;;10.20;55.30;;;;;;5035693;28;20388;-72
2023/11/08 02:10:59;;;;;;;5.88;1.70;;;10.10;55.40;;;;;;5053211;28;20432;-71
2023/11/08 02:13:26;;;;;;;3.73;1.40;;;10.20;56.00;;;;;;5034728;28;20483;-71
2023/11/08 02:15:52;;;;;;;4.50;1.60;;;10.20;55.40;;;;;;5052817;28;20504;-72
2023/11/08 02:18:18;;;;;;;6.55;2.55;;;10.20;55.80;;;;;;5052133;28;20421;-71
2023/11/08 02:20:44;;;;;;;6.75;1.90;;;10.20;55.80;;;;;;5052587;28;20389;-71
2023/11/08 02:23:10;;;;;;;6.22;1.88;;;10.20;55.10;;;;;;5034418;28;20504;-72
2023/11/08 02:25:38;;;;;;;6.32;1.80;;;10.10;55.00;;;;;;5052460;28;20756;-72
2023/11/08 02:28:04;;;;;;;5.93;2.13;;;10.00;55.70;;;;;;5051978;28;20405;-70
2023/11/08 02:30:29;;;;;;;7.05;2.00;;;10.10;55.10;;;;;;5052062;28;20440;-71
2023/11/08 02:32:55;;;;;;;6.47;2.30;;;10.20;53.60;;;;;;5052331;28;20465;-71
2023/11/08 02:35:21;;;;;;;6.78;2.80;;;10.20;54.40;;;;;;5052028;28;20380;-71
2023/11/08 02:37:48;;;;;;;8.73;2.65;;;10.10;54.50;;;;;;5051919;28;20417;-71
2023/11/08 02:40:13;;;;;;;6.90;2.70;;;10.20;53.30;;;;;;5052209;28;20763;-71
2023/11/08 02:42:40;;;;;;;6.10;2.20;;;10.10;54.40;;;;;;5051962;28;20465;-71
2023/11/08 02:45:06;;;;;;;4.90;1.95;;;10.20;53.70;;;;;;5051844;28;20381;-71
2023/11/08 02:47:32;;;;;;;4.45;2.00;;;10.20;53.40;;;;;;5051365;28;20402;-71
2023/11/08 02:49:58;;;;;;;7.38;1.77;;;10.20;52.90;;;;;;5051857;28;20722;-71
2023/11/08 02:52:24;;;;;;;4.40;2.00;;;10.30;52.90;;;;;;5033960;28;20436;-71
2023/11/08 02:54:51;;;;;;;5.72;1.60;;;10.30;52.50;;;;;;5051860;28;20377;-72
2023/11/08 02:57:18;;;;;;;4.53;1.73;;;10.30;52.70;;;;;;5033679;28;20382;-72
2023/11/08 02:59:44;;;;;;;5.88;2.10;;;10.30;52.00;;;;;;5051937;28;20397;-71
2023/11/08 03:02:10;;;;;;;13.05;2.25;;;10.30;52.10;;;;;;5051924;28;20397;-72
2023/11/08 03:04:37;;;;;;;6.55;2.40;;;10.30;52.00;;;;;;5051771;28;20388;-72
2023/11/08 03:07:04;;;;;;;4.73;2.43;;;10.20;53.40;;;;;;5051831;28;20385;-72
2023/11/08 03:09:30;;;;;;;5.88;2.60;;;10.20;53.20;;;;;;5051789;28;20385;-71
2023/11/08 03:11:57;;;;;;;5.35;2.40;;;10.20;53.20;;;;;;5051439;28;20416;-71
2023/11/08 03:14:27;;;;;;;7.38;2.50;;;10.20;52.00;;;;;;5051237;28;20385;-73
2023/11/08 03:16:54;;;;;;;5.35;1.90;;;10.20;52.40;;;;;;5053269;28;20459;-71
2023/11/08 03:19:20;;;;;;;4.38;1.70;;;10.20;52.00;;;;;;5052061;28;20381;-72
2023/11/08 03:21:49;;;;;;;6.93;1.60;;;10.20;52.40;;;;;;5051401;28;20400;-73
2023/11/08 03:24:15;;;;;;;4.15;1.60;;;10.20;51.20;;;;;;5051133;28;20392;-71
2023/11/08 03:26:45;;;;;;;6.35;2.13;;;10.30;50.90;;;;;;5051088;28;20393;-72
2023/11/08 03:29:10;;;;;;;5.30;1.70;;;10.20;52.00;;;;;;5051451;28;20389;-73
2023/11/08 03:31:39;;;;;;;6.20;1.50;;;10.20;51.40;;;;;;5051146;28;20741;-73
2023/11/08 03:34:04;;;;;;;5.28;1.50;;;10.20;51.80;;;;;;5051437;28;20489;-72
2023/11/08 03:36:30;;;;;;;6.50;1.80;;;10.10;52.60;;;;;;5051235;28;20432;-70
2023/11/08 03:38:56;;;;;;;4.13;1.70;;;10.10;52.70;;;;;;5050927;28;20392;-70
2023/11/08 03:41:24;;;;;;;4.00;1.67;;;10.20;52.00;;;;;;5050926;28;20403;-70
2023/11/08 03:43:51;;;;;;;4.30;1.50;;;10.20;51.10;;;;;;5050990;28;20913;-70
2023/11/08 03:46:17;;;;;;;4.30;1.40;;;10.20;50.90;;;;;;5050528;28;20408;-70
2023/11/08 03:48:42;;;;;;;4.85;1.42;;;10.10;52.80;;;;;;5081103;23;20427;-70
2023/11/08 03:51:08;;;;;;;4.30;1.73;;;10.00;53.30;;;;;;5070833;28;20893;-70
2023/11/08 03:53:34;;;;;;;5.90;1.70;;;10.00;53.50;;;;;;5070865;28;20410;-70
2023/11/08 03:55:59;;;;;;;6.27;1.70;;;10.00;52.40;;;;;;5070852;28;20387;-70
2023/11/08 03:58:25;;;;;;;4.30;1.45;;;10.10;52.70;;;;;;5070502;28;20389;-71
2023/11/08 04:00:50;;;;;;;6.20;1.80;;;10.00;52.90;;;;;;5070035;28;20466;-72
2023/11/08 04:03:16;;;;;;;6.35;1.55;;;10.00;52.50;;;;;;5071564;28;20476;-72
2023/11/08 04:05:42;;;;;;;5.55;1.40;;;10.00;53.50;;;;;;5069893;28;20511;-71
2023/11/08 04:08:07;;;;;;;3.80;1.80;;;9.90;52.90;;;;;;5071006;28;20392;-71
2023/11/08 04:10:33;;;;;;;3.47;1.40;;;9.90;53.20;;;;;;5070567;28;20742;-71
2023/11/08 04:12:59;;;;;;;4.00;1.60;;;9.80;53.80;;;;;;5070671;28;20371;-70
2023/11/08 04:15:25;;;;;;;5.75;1.80;;;9.70;54.30;;;;;;5070670;28;20379;-71
2023/11/08 04:17:50;;;;;;;11.00;1.90;;;9.60;55.20;;;;;;5070817;28;20458;-73
2023/11/08 04:20:16;;;;;;;8.53;2.23;;;9.50;56.20;;;;;;5071788;28;20384;-72
2023/11/08 04:22:43;;;;;;;8.60;2.17;;;9.40;58.10;;;;;;5071014;28;20474;-71
2023/11/08 04:25:11;;;;;;;6.50;2.25;;;9.30;58.90;;;;;;5070673;28;20386;-71
2023/11/08 04:27:37;;;;;;;7.30;2.00;;;9.30;59.50;;;;;;5070430;28;20407;-72
2023/11/08 04:30:03;;;;;;;5.07;2.13;;;9.20;60.00;;;;;;5070798;28;20394;-70
2023/11/08 04:32:29;;;;;;;7.35;2.10;;;9.20;61.00;;;;;;5070394;28;20388;-71
2023/11/08 04:34:55;;;;;;;6.25;1.60;;;9.10;62.00;;;;;;5070544;28;20386;-70
2023/11/08 04:37:21;;;;;;;3.45;1.60;;;9.10;61.60;;;;;;5070037;28;20386;-70
2023/11/08 04:39:49;;;;;;;8.33;2.07;;;9.00;62.60;;;;;;5070567;28;20987;-69
2023/11/08 04:42:14;;;;;;;6.22;1.95;;;9.00;62.40;;;;;;5070492;28;20870;-71
2023/11/08 04:44:47;;;;;;;8.90;1.90;;;8.80;63.80;;;;;;5070002;28;20413;-72
2023/11/08 04:47:17;;;;;;;8.85;1.80;;;8.90;64.60;;;;;;5070631;28;20898;-72
2023/11/08 04:49:45;;;;;;;7.25;2.00;;;8.80;65.60;;;;;;5071474;28;20467;-71
2023/11/08 04:52:10;;;;;;;7.65;2.03;;;8.80;65.40;;;;;;5070087;28;20407;-70
2023/11/08 04:54:36;;;;;;;6.47;1.80;;;8.70;66.30;;;;;;5070805;28;20377;-70
2023/11/08 04:57:02;;;;;;;7.13;1.90;;;8.60;66.90;;;;;;5070363;28;20376;-70
2023/11/08 04:59:27;;;;;;;4.87;1.97;;;8.70;66.90;;;;;;5070810;28;20379;-71
2023/11/08 05:01:53;;;;;;;7.20;2.90;;;8.60;67.60;;;;;;5071190;28;21030;-69
2023/11/08 05:04:19;;;;;;;6.07;2.70;;;8.50;67.90;;;;;;5071332;28;20939;-70
2023/11/08 05:06:44;;;;;;;5.07;1.70;;;8.40;69.70;;;;;;5070946;28;20486;-71
2023/11/08 05:09:14;;;;;;;8.48;2.30;;;8.30;70.60;;;;;;5070328;28;20439;-72
2023/11/08 05:11:40;;;;;;;7.13;2.08;;;8.40;71.70;;;;;;5070113;28;20395;-72
2023/11/08 05:14:07;;;;;;;4.70;1.73;;;8.30;71.40;;;;;;5070915;28;20386;-73
2023/11/08 05:16:32;;;;;;;3.58;1.75;;;8.30;71.50;;;;;;5069844;28;20884;-72
2023/11/08 05:18:58;;;;;;;6.70;2.00;;;8.30;71.80;;;;;;5069858;28;20384;-72
2023/11/08 05:21:24;;;;;;;7.03;1.90;;;8.20;72.80;;;;;;5069946;28;20478;-72
2023/11/08 05:23:49;;;;;;;5.77;1.80;;;8.20;73.50;;;;;;5069944;28;20386;-72
2023/11/08 05:26:16;;;;;;;8.63;1.87;;;8.00;74.50;;;;;;5068335;28;20399;-72
2023/11/08 05:28:42;;;;;;;4.47;1.90;;;7.90;76.00;;;;;;5070406;28;20423;-70
2023/11/08 05:31:07;;;;;;;7.63;2.38;;;8.00;76.30;;;;;;5073404;28;20443;-70
2023/11/08 05:33:33;;;;;;;8.70;2.30;;;8.10;75.20;;;;;;5073801;28;20418;-71
2023/11/08 05:35:59;;;;;;;4.35;2.00;;;8.00;76.60;;;;;;5072121;28;20392;-70
2023/11/08 05:38:25;;;;;;;4.95;2.08;;;8.00;75.80;;;;;;5073221;28;20393;-70
2023/11/08 05:40:51;;;;;;;7.50;2.37;;;7.90;76.50;;;;;;5073956;28;20482;-71
2023/11/08 05:43:17;;;;;;;7.05;2.15;;;7.90;77.80;;;;;;5084917;28;20395;-70
2023/11/08 05:45:42;;;;;;;7.93;1.93;;;7.90;78.90;;;;;;5089567;28;20439;-72
2023/11/08 05:48:08;;;;;;;5.30;2.20;;;7.90;78.30;;;;;;5093832;28;20545;-72
2023/11/08 05:50:34;;;;;;;6.07;2.40;;;7.80;79.90;;;;;;5079931;28;20491;-71
2023/11/08 05:52:59;;;;;;;7.30;2.23;;;7.80;81.40;;;;;;5073360;28;20463;-71
2023/11/08 05:55:25;;;;;;;6.93;2.53;;;7.90;79.20;;;;;;5073274;28;20413;-71
2023/11/08 05:57:50;;;;;;;6.10;2.30;;;7.80;80.20;;;;;;5071467;28;20434;-72
2023/11/08 06:00:16;;;;;;;7.93;2.60;;;7.70;81.30;;;;;;5072890;28;20399;-71
2023/11/08 06:02:42;;;;;;;4.00;1.88;;;7.70;82.50;;;;;;5072919;28;20387;-71
2023/11/08 06:05:08;;;;;;;9.32;2.90;;;7.70;83.00;;;;;;5072761;28;20411;-71
2023/11/08 06:07:34;;;;;;;8.50;2.40;;;7.70;83.20;;;;;;5072121;28;20392;-72
2023/11/08 06:10:00;;;;;;;9.20;2.60;;;7.70;83.90;;;;;;5072777;28;20391;-70
2023/11/08 06:12:27;;;;;;;10.80;2.90;;;7.70;84.40;;;;;;5072845;28;20387;-69
2023/11/08 06:14:52;;;;;;;10.00;2.80;;;7.70;83.10;;;;;;5072849;28;20522;-71
2023/11/08 06:17:18;;;;;;;11.87;2.77;;;7.80;83.50;;;;;;5072354;28;20466;-71
2023/11/08 06:19:44;;;;;;;9.45;3.00;;;7.80;81.60;;;;;;5072844;28;20929;-71
2023/11/08 06:22:10;;;;;;;8.55;3.25;;;7.90;81.80;;;;;;5071563;28;20502;-71
2023/11/08 06:24:35;;;;;;;9.43;3.30;;;7.90;81.20;;;;;;5072803;28;20380;-71
2023/11/08 06:27:01;;;;;;;10.38;2.70;;;7.90;81.90;;;;;;5072745;28;20396;-73
2023/11/08 06:29:28;;;;;;;9.18;3.20;;;8.00;81.60;;;;;;5072306;28;20528;-70
2023/11/08 06:31:54;;;;;;;17.88;3.25;;;8.10;80.50;;;;;;5072249;28;20404;-71
2023/11/08 06:34:19;;;;;;;8.10;3.00;;;8.00;80.30;;;;;;5072457;28;20375;-70
2023/11/08 06:36:45;;;;;;;14.45;3.45;;;8.10;79.70;;;;;;5072246;28;20376;-71
2023/11/08 06:39:14;;;;;;;14.82;3.00;;;8.20;79.30;;;;;;5072197;28;20376;-71
2023/11/08 06:41:39;;;;;;;8.60;2.95;;;8.20;79.70;;;;;;5072607;28;20898;-71
2023/11/08 06:44:05;;;;;;;15.20;3.38;;;8.30;78.70;;;;;;5072751;28;20395;-71
2023/11/08 06:46:31;;;;;;;10.02;3.03;;;8.30;77.90;;;;;;5071620;28;20376;-70
2023/11/08 06:48:57;;;;;;;10.23;3.00;;;8.30;77.90;;;;;;5071384;28;20770;-70
2023/11/08 06:51:24;;;;;;;15.50;3.78;;;8.30;76.80;;;;;;5072417;28;20399;-71
2023/11/08 06:53:52;;;;;;;10.32;3.40;;;8.30;77.80;;;;;;5073810;28;20380;-73
2023/11/08 06:56:17;;;;;;;8.77;2.80;;;8.30;77.80;;;;;;5073686;28;20387;-70
2023/11/08 06:58:43;;;;;;;11.20;3.87;;;8.40;76.20;;;;;;5073612;28;20384;-70
2023/11/08 07:01:10;;;;;;;11.43;3.60;;;8.50;76.60;;;;;;5072221;28;20391;-71
2023/11/08 07:03:35;;;;;;;5.50;3.22;;;8.50;76.60;;;;;;5070913;28;20460;-71
2023/11/08 07:06:04;;;;;;;14.90;3.90;;;8.50;76.60;;;;;;5073878;28;20380;-72
2023/11/08 07:08:30;;;;;;;13.27;3.70;;;8.60;75.20;;;;;;5075554;28;20411;-73
2023/11/08 07:10:55;;;;;;;8.77;3.57;;;8.70;74.50;;;;;;5074041;28;20495;-70
2023/11/08 07:13:21;;;;;;;11.17;4.00;;;8.80;72.70;;;;;;5074348;28;20981;-71
2023/11/08 07:15:47;;;;;;;9.03;3.30;;;8.90;73.30;;;;;;5072773;28;20466;-71
2023/11/08 07:18:14;;;;;;;11.48;4.40;;;8.90;73.30;;;;;;5071829;28;20387;-71
2023/11/08 07:20:40;;;;;;;15.20;4.05;;;9.00;71.80;;;;;;5070930;28;20391;-70
2023/11/08 07:23:08;;;;;;;11.05;4.22;;;9.20;70.80;;;;;;5069847;28;20417;-74
2023/11/08 07:25:33;;;;;;;10.75;3.25;;;9.20;69.90;;;;;;5071594;28;20395;-72
2023/11/08 07:27:59;;;;;;;19.33;3.90;;;9.30;69.00;;;;;;5069687;28;20525;-71
2023/11/08 07:30:26;;;;;;;12.67;3.97;;;9.40;67.50;;;;;;5071091;28;20415;-71
2023/11/08 07:32:52;;;;;;;11.25;3.60;;;9.50;65.80;;;;;;5072264;28;20437;-72
2023/11/08 07:35:18;;;;;;;11.43;3.58;;;9.50;65.60;;;;;;5067881;28;20404;-71
2023/11/08 07:37:43;;;;;;;9.73;3.40;;;9.60;64.40;;;;;;5057768;28;20390;-70
2023/11/08 07:40:12;;;;;;;13.53;3.40;;;9.60;63.90;;;;;;5049543;28;20391;-72
2023/11/08 07:42:41;;;;;;;7.82;3.40;;;9.60;64.00;;;;;;5060457;28;20398;-72
2023/11/08 07:45:07;;;;;;;14.63;4.55;;;9.70;63.60;;;;;;5066874;28;20959;-72
2023/11/08 07:47:33;;;;;;;14.45;5.00;;;9.80;61.60;;;;;;5053504;28;20490;-72
2023/11/08 07:49:59;;;;;;;13.73;4.30;;;9.90;61.10;;;;;;5070539;28;20850;-71
2023/11/08 07:52:25;;;;;;;12.25;4.15;;;9.80;61.30;;;;;;5070574;28;20388;-73
2023/11/08 07:54:54;;;;;;;13.43;3.60;;;9.80;61.70;;;;;;5068629;28;20388;-72
2023/11/08 07:57:20;;;;;;;16.05;4.30;;;9.80;61.40;;;;;;5058301;28;20396;-72
2023/11/08 07:59:45;;;;;;;13.30;3.92;;;9.80;61.80;;;;;;5049503;28;20736;-72
2023/11/08 08:02:11;;;;;;;16.95;4.35;;;9.80;61.50;;;;;;5069694;28;20398;-73
2023/11/08 08:04:37;;;;;;;9.63;3.15;;;9.80;61.20;;;;;;5073207;28;20778;-72
2023/11/08 08:07:06;;;;;;;10.60;3.70;;;9.90;61.30;;;;;;5070399;28;20821;-71
2023/11/08 08:09:32;;;;;;;14.98;3.97;;;9.80;60.90;;;;;;5067374;28;20507;-71
2023/11/08 08:11:58;;;;;;;11.55;3.10;;;9.80;61.20;;;;;;5068844;28;20408;-72
2023/11/08 08:14:24;;;;;;;20.42;4.03;;;9.70;62.00;;;;;;5069780;28;20742;-72
2023/11/08 08:16:53;;;;;;;16.57;3.80;;;9.80;61.70;;;;;;5067835;28;20403;-71
2023/11/08 08:19:19;;;;;;;12.93;3.60;;;9.80;61.10;;;;;;5067711;28;20788;-70
2023/11/08 08:21:44;;;;;;;17.30;3.90;;;9.70;62.80;;;;;;5066796;28;20446;-70
2023/11/08 08:24:10;;;;;;;13.50;4.40;;;10.00;62.20;;;;;;5068745;28;20387;-71
2023/11/08 08:26:36;;;;;;;10.45;3.55;;;10.50;57.30;;;;;;5068167;28;20403;-71
2023/11/08 08:29:02;;;;;;;9.77;3.00;;;10.90;53.40;;;;;;5068817;28;20388;-71
2023/11/08 08:31:28;;;;;;;13.68;3.25;;;11.10;51.20;;;;;;5067603;28;20419;-71
2023/11/08 08:33:57;;;;;;;11.18;3.40;;;11.00;51.20;;;;;;5068435;28;20707;-71
2023/11/08 08:36:23;;;;;;;13.27;3.15;;;10.80;51.60;;;;;;5069017;28;20387;-71
2023/11/08 08:38:48;;;;;;;10.23;2.88;;;10.70;53.10;;;;;;5068756;28;20421;-71
2023/11/08 08:41:18;;;;;;;8.07;2.60;;;10.80;52.60;;;;;;5068589;28;20894;-71
2023/11/08 08:43:43;;;;;;;10.40;2.70;;;10.80;52.50;;;;;;5066832;28;20431;-71
2023/11/08 08:46:09;;;;;;;11.55;3.10;;;10.90;51.80;;;;;;5066673;28;20982;-71
2023/11/08 08:48:35;;;;;;;13.32;2.95;;;11.00;50.90;;;;;;5067732;28;20404;-71
2023/11/08 08:51:01;;;;;;;14.70;2.80;;;11.30;49.30;;;;;;5068187;28;20400;-71
2023/11/08 08:53:27;;;;;;;8.20;2.55;;;11.30;48.90;;;;;;5068102;28;20395;-71
2023/11/08 08:55:53;;;;;;;9.82;2.60;;;11.40;47.10;;;;;;5068050;28;20409;-72
2023/11/08 08:58:18;;;;;;;8.70;2.40;;;11.60;46.20;;;;;;5068138;28;20735;-71
2023/11/08 09:00:44;;;;;;;11.10;2.90;;;12.30;42.10;;;;;;5063169;28;20432;-70
2023/11/08 09:03:10;;;;;;;9.68;2.50;;;13.10;39.20;;;;;;5056510;28;20507;-71
2023/11/08 09:05:35;;;;;;;13.20;2.53;;;13.40;37.20;;;;;;5072288;28;20738;-73
2023/11/08 09:08:02;;;;;;;11.70;2.90;;;13.40;37.20;;;;;;5073989;28;20413;-71
2023/11/08 09:10:28;;;;;;;7.45;2.22;;;13.20;36.60;;;;;;5073858;28;20423;-72
2023/11/08 09:12:53;;;;;;;9.40;2.33;;;13.00;37.00;;;;;;5074576;28;20470;-76
2023/11/08 09:15:19;;;;;;;9.07;2.70;;;12.80;37.80;;;;;;5075390;28;20437;-74
2023/11/08 09:17:45;;;;;;;8.40;2.40;;;12.70;38.20;;;;;;5074565;28;20375;-75
2023/11/08 09:20:11;;;;;;;10.90;3.15;;;12.60;38.50;;;;;;5076283;28;20778;-74
2023/11/08 09:22:37;;;;;;;6.07;2.60;;;12.30;39.50;;;;;;5088221;28;20412;-73
2023/11/08 09:25:04;;;;;;;9.98;2.58;;;12.20;39.70;;;;;;5096865;28;20402;-74
2023/11/08 09:27:32;;;;;;;9.80;2.60;;;12.20;39.90;;;;;;5094376;28;20459;-76
2023/11/08 09:29:58;;;;;;;10.98;2.70;;;12.10;39.90;;;;;;5077960;28;20467;-73
2023/11/08 09:32:25;;;;;;;10.25;2.20;;;12.10;40.80;;;;;;5074828;28;20399;-74
2023/11/08 09:34:52;;;;;;;13.05;2.25;;;12.20;40.40;;;;;;5073929;28;20380;-73
2023/11/08 09:37:18;;;;;;;12.02;2.45;;;12.30;39.60;;;;;;5073750;28;20529;-74
2023/11/08 09:39:48;;;;;;;7.83;2.20;;;12.60;38.60;;;;;;5073860;28;20794;-73
2023/11/08 09:42:16;;;;;;;8.45;2.17;;;12.90;37.50;;;;;;5073392;28;20399;-74
2023/11/08 09:44:43;;;;;;;11.98;3.13;;;13.20;35.20;;;;;;5073713;28;20386;-72
2023/11/08 09:47:10;;;;;;;11.85;2.58;;;13.30;35.20;;;;;;5071860;28;20542;-72
2023/11/08 09:49:36;;;;;;;10.52;2.25;;;13.50;34.10;;;;;;5060541;28;20415;-73
2023/11/08 09:52:02;;;;;;;9.48;2.20;;;13.70;32.70;;;;;;5073371;28;20927;-74
2023/11/08 09:54:27;;;;;;;10.38;2.30;;;13.60;32.50;;;;;;5073543;28;20387;-73
2023/11/08 09:56:53;;;;;;;7.18;2.30;;;13.70;32.40;;;;;;5073705;28;20794;-74
2023/11/08 09:59:21;;;;;;;13.35;2.83;;;13.60;31.90;;;;;;5073863;28;20384;-73
2023/11/08 10:01:50;;;;;;;11.03;2.43;;;13.50;31.40;;;;;;5073983;28;20462;-72
2023/11/08 10:04:16;;;;;;;10.25;2.17;;;13.30;31.80;;;;;;5073918;28;20387;-72
2023/11/08 10:06:43;;;;;;;6.25;2.38;;;13.40;31.90;;;;;;5074591;28;20428;-72
2023/11/08 10:09:11;;;;;;;15.13;3.13;;;13.40;31.80;;;;;;5077646;28;20444;-73
2023/11/08 10:11:40;;;;;;;9.50;2.23;;;13.40;31.50;;;;;;5075827;28;20465;-73
2023/11/08 10:14:07;;;;;;;9.80;2.60;;;13.40;31.70;;;;;;5076143;28;20384;-74
2023/11/08 10:16:43;;;;;;;10.65;2.47;;;13.50;30.80;;;;;;5075582;28;20734;-74
2023/11/08 10:19:09;;;;;;;14.57;2.40;;;13.40;30.80;;;;;;5077107;28;20372;-74
2023/11/08 10:21:36;;;;;;;7.65;2.60;;;13.50;30.80;;;;;;5077682;28;20429;-74
2023/11/08 10:24:10;;;;;;;12.45;2.78;;;13.70;30.50;;;;;;5081432;28;20750;-74
2023/11/08 10:26:36;;;;;;;17.73;3.40;;;13.60;30.00;;;;;;5078673;28;20383;-73
2023/11/08 10:29:05;;;;;;;9.70;2.63;;;13.60;30.00;;;;;;5075205;28;20390;-74
2023/11/08 10:31:44;;;;;;;12.00;3.20;;;13.50;30.60;;;;;;5076089;28;20414;-74
2023/11/08 10:34:15;;;;;;;9.40;2.55;;;13.60;30.80;;;;;;5074191;28;20853;-73
2023/11/08 10:36:41;;;;;;;8.50;2.60;;;13.40;30.50;;;;;;5072632;28;20495;-72
2023/11/08 10:39:15;;;;;;;11.93;2.70;;;13.30;31.10;;;;;;5073944;28;20506;-72
2023/11/08 10:41:43;;;;;;;6.90;2.28;;;13.20;31.20;;;;;;5073246;28;20383;-74
2023/11/08 10:44:21;;;;;;;8.55;2.13;;;13.10;31.40;;;;;;5075081;28;20463;-74
2023/11/08 10:46:57;;;;;;;7.70;2.25;;;13.00;31.80;;;;;;5074882;28;20390;-74
2023/11/08 10:49:23;;;;;;;8.30;2.30;;;13.00;31.90;;;;;;5072910;28;20376;-73
2023/11/08 10:51:50;;;;;;;13.00;2.15;;;13.20;31.40;;;;;;5072460;28;20487;-74
2023/11/08 10:54:16;;;;;;;8.73;2.20;;;13.30;31.60;;;;;;5072326;28;20372;-71
2023/11/08 10:56:44;;;;;;;5.25;1.90;;;13.20;31.10;;;;;;5071870;28;20791;-75
2023/11/08 10:59:12;;;;;;;16.07;2.73;;;13.30;30.60;;;;;;5071541;28;20414;-73
2023/11/08 11:01:41;;;;;;;11.63;2.90;;;13.40;30.80;;;;;;5071991;28;20388;-71
2023/11/08 11:04:13;;;;;;;8.07;2.17;;;13.50;31.00;;;;;;5071790;28;20391;-72
2023/11/08 11:06:40;;;;;;;11.35;2.60;;;13.60;30.20;;;;;;5071963;28;20390;-73
2023/11/08 11:09:10;;;;;;;11.17;2.57;;;13.70;30.30;;;;;;5071870;28;20424;-73
2023/11/08 11:12:12;;;;;;;8.10;2.20;;;13.70;29.60;;;;;;5072255;28;20400;-74
2023/11/08 11:14:45;;;;;;;9.63;2.67;;;13.70;29.90;;;;;;5038756;28;20823;-72
2023/11/08 11:17:22;;;;;;;6.68;1.70;;;13.60;29.60;;;;;;5069722;28;20387;-71
2023/11/08 11:19:50;;;;;;;11.73;2.40;;;13.60;29.70;;;;;;5071755;28;20685;-74
2023/11/08 11:22:18;;;;;;;7.75;2.38;;;13.70;29.60;;;;;;5071553;28;20415;-72
2023/11/08 11:24:45;;;;;;;9.95;2.53;;;13.80;29.50;;;;;;5071910;28;20892;-73
2023/11/08 11:27:33;;;;;;;8.77;3.20;;;13.90;28.70;;;;;;5071281;28;20424;-75
2023/11/08 11:30:14;;;;;;;9.90;2.20;;;13.70;28.40;;;;;;5071146;28;20383;-73
2023/11/08 11:32:46;;;;;;;13.25;2.30;;;13.90;28.90;;;;;;5071275;28;20419;-74
2023/11/08 11:35:34;;;;;;;6.60;1.75;;;13.90;28.00;;;;;;5071351;28;20383;-72
2023/11/08 11:38:06;;;;;;;8.40;2.30;;;13.80;28.30;;;;;;5061311;28;20479;-73
2023/11/08 11:40:38;;;;;;;8.32;2.22;;;13.70;28.00;;;;;;5071369;28;20410;-73
2023/11/08 11:43:32;;;;;;;7.85;2.05;;;13.70;27.90;;;;;;5071181;28;20380;-74
2023/11/08 11:45:58;;;;;;;8.57;1.90;;;13.70;28.10;;;;;;5071321;28;20376;-74
2023/11/08 11:48:27;;;;;;;6.93;1.85;;;13.70;27.70;;;;;;5071740;28;20761;-74
2023/11/08 11:50:54;;;;;;;7.53;2.30;;;13.70;27.00;;;;;;5071361;28;20404;-73
2023/11/08 11:53:19;;;;;;;7.78;2.00;;;13.80;27.00;;;;;;5071226;28;20734;-73
2023/11/08 11:55:45;;;;;;;6.87;1.73;;;13.80;26.90;;;;;;5070677;28;20471;-72
2023/11/08 11:58:11;;;;;;;12.67;2.10;;;13.70;25.90;;;;;;5070662;28;20391;-73
2023/11/08 12:00:37;;;;;;;11.05;1.90;;;13.80;26.70;;;;;;5070467;28;20380;-72
2023/11/08 12:03:04;;;;;;;7.10;2.10;;;13.90;26.20;;;;;;5071192;28;20396;-74
2023/11/08 12:05:30;;;;;;;9.98;2.05;;;13.90;26.30;;;;;;5071465;28;20411;-74
2023/11/08 12:07:55;;;;;;;9.03;2.00;;;14.10;25.50;;;;;;5070570;28;20403;-72
2023/11/08 12:10:26;;;;;;;9.20;2.05;;;14.10;25.50;;;;;;5071040;28;20894;-71
2023/11/08 12:12:53;;;;;;;11.68;2.35;;;14.30;25.00;;;;;;5071320;28;20376;-73
2023/11/08 12:15:22;;;;;;;8.50;2.22;;;14.20;24.80;;;;;;5071115;28;20384;-74
2023/11/08 12:17:52;;;;;;;10.00;2.30;;;14.20;24.90;;;;;;5071717;28;20376;-73
2023/11/08 12:20:24;;;;;;;5.60;1.60;;;14.10;24.90;;;;;;5072221;28;20405;-72
2023/11/08 12:22:51;;;;;;;9.15;1.98;;;14.00;25.10;;;;;;5071284;28;20419;-73
2023/11/08 12:25:20;;;;;;;9.18;1.88;;;13.80;25.40;;;;;;5070529;28;20433;-73
2023/11/08 12:27:50;;;;;;;8.27;1.80;;;13.80;25.60;;;;;;5070335;28;20382;-72
2023/11/08 12:30:17;;;;;;;6.45;2.10;;;13.90;25.30;;;;;;5070538;28;20383;-72
2023/11/08 12:32:42;;;;;;;5.38;1.90;;;13.90;25.90;;;;;;5070336;28;20508;-73
2023/11/08 12:35:09;;;;;;;10.52;2.53;;;13.90;25.80;;;;;;5070188;28;20388;-72
2023/11/08 12:37:36;;;;;;;9.85;2.00;;;14.00;25.60;;;;;;5073704;28;20458;-73
2023/11/08 12:40:22;;;;;;;8.52;2.22;;;14.20;25.40;;;;;;5077668;28;20512;-73
2023/11/08 12:42:49;;;;;;;10.50;2.00;;;14.20;25.00;;;;;;5077278;28;20534;-72
2023/11/08 12:45:33;;;;;;;5.43;1.83;;;14.10;25.30;;;;;;5076884;28;20380;-73
2023/11/08 12:48:06;;;;;;;8.93;2.00;;;14.00;25.60;;;;;;5077178;28;20395;-74